sensor_id;sensor_type;location;lat;lon;timestamp;pressure;altitude;pressure_sealevel;temperature;humidity
2268;BME280;11052;43.338;25.502;2023-02-28T00:01:20;101423.91;;;8.29;100.00
2268;BME280;11052;43.338;25.502;2023-02-28T00:03:48;101425.63;;;8.30;100.00
2268;BME280;11052;43.338;25.502;2023-02-28T00:06:15;101429.94;;;8.25;100.00
2268;BME280;11052;43.338;25.502;2023-02-28T00:08:42;101433.41;;;8.38;100.00
2268;BME280;11052;43.338;25.502;2023-02-28T00:11:13;101431.66;;;8.28;100.00
2268;BME280;11052;43.338;25.502;2023-02-28T00:13:41;101427.38;;;8.36;100.00
2268;BME280;11052;43.338;25.502;2023-02-28T00:16:13;101432.53;;;8.37;100.00
2268;BME280;11052;43.338;25.502;2023-02-28T00:18:40;101436.84;;;8.34;100.00
2268;BME280;11052;43.338;25.502;2023-02-28T00:21:08;101431.66;;;8.37;100.00
2268;BME280;11052;43.338;25.502;2023-02-28T00:23:35;101443.72;;;8.38;100.00
2268;BME280;11052;43.338;25.502;2023-02-28T00:26:03;101444.59;;;8.25;100.00
2268;BME280;11052;43.338;25.502;2023-02-28T00:28:32;101452.34;;;8.40;100.00
2268;BME280;11052;43.338;25.502;2023-02-28T00:30:59;101457.47;;;8.46;100.00
2268;BME280;11052;43.338;25.502;2023-02-28T00:33:26;101451.47;;;8.41;100.00
2268;BME280;11052;43.338;25.502;2023-02-28T00:36:01;101447.13;;;8.50;100.00
2268;BME280;11052;43.338;25.502;2023-02-28T00:38:29;101447.16;;;8.31;100.00
2268;BME280;11052;43.338;25.502;2023-02-28T00:40:56;101438.53;;;8.29;100.00
2268;BME280;11052;43.338;25.502;2023-02-28T00:43:24;101454.03;;;8.44;100.00
2268;BME280;11052;43.338;25.502;2023-02-28T00:45:52;101448.03;;;8.25;100.00
2268;BME280;11052;43.338;25.502;2023-02-28T00:48:19;101454.91;;;8.31;100.00
2268;BME280;11052;43.338;25.502;2023-02-28T00:50:48;101473.88;;;8.33;100.00
2268;BME280;11052;43.338;25.502;2023-02-28T00:53:16;101483.34;;;8.43;100.00
2268;BME280;11052;43.338;25.502;2023-02-28T00:55:43;101479.03;;;8.45;100.00
2268;BME280;11052;43.338;25.502;2023-02-28T00:58:10;101473.84;;;8.46;100.00
2268;BME280;11052;43.338;25.502;2023-02-28T01:00:37;101479.88;;;8.47;100.00
2268;BME280;11052;43.338;25.502;2023-02-28T01:03:06;101466.97;;;8.42;100.00
2268;BME280;11052;43.338;25.502;2023-02-28T01:05:33;101469.53;;;8.32;100.00
2268;BME280;11052;43.338;25.502;2023-02-28T01:08:00;101466.97;;;8.21;100.00
2268;BME280;11052;43.338;25.502;2023-02-28T01:10:28;101458.38;;;8.05;100.00
2268;BME280;11052;43.338;25.502;2023-02-28T01:12:57;101460.97;;;8.02;100.00
2268;BME280;11052;43.338;25.502;2023-02-28T01:15:24;101460.97;;;8.02;100.00
2268;BME280;11052;43.338;25.502;2023-02-28T01:17:51;101471.31;;;7.93;100.00
2268;BME280;11052;43.338;25.502;2023-02-28T01:20:20;101476.47;;;7.88;100.00
2268;BME280;11052;43.338;25.502;2023-02-28T01:22:47;101473.03;;;8.00;100.00
2268;BME280;11052;43.338;25.502;2023-02-28T01:25:14;101473.88;;;7.98;100.00
2268;BME280;11052;43.338;25.502;2023-02-28T01:27:41;101469.59;;;7.90;100.00
2268;BME280;11052;43.338;25.502;2023-02-28T01:30:10;101466.16;;;7.79;100.00
2268;BME280;11052;43.338;25.502;2023-02-28T01:32:37;101464.41;;;7.84;100.00
2268;BME280;11052;43.338;25.502;2023-02-28T01:35:05;101465.28;;;7.91;100.00
2268;BME280;11052;43.338;25.502;2023-02-28T01:37:33;101466.13;;;7.93;100.00
2268;BME280;11052;43.338;25.502;2023-02-28T01:40:00;101462.69;;;7.91;100.00
2268;BME280;11052;43.338;25.502;2023-02-28T01:42:27;101463.56;;;7.93;100.00
2268;BME280;11052;43.338;25.502;2023-02-28T01:44:58;101447.22;;;7.93;100.00
2268;BME280;11052;43.338;25.502;2023-02-28T01:47:28;101437.75;;;7.95;100.00
2268;BME280;11052;43.338;25.502;2023-02-28T01:49:56;101454.94;;;7.94;100.00
2268;BME280;11052;43.338;25.502;2023-02-28T01:52:24;101460.97;;;7.92;100.00
2268;BME280;11052;43.338;25.502;2023-02-28T01:54:55;101461.84;;;7.94;100.00
2268;BME280;11052;43.338;25.502;2023-02-28T01:57:26;101467.84;;;7.99;100.00
2268;BME280;11052;43.338;25.502;2023-02-28T01:59:57;101472.16;;;8.01;100.00
2268;BME280;11052;43.338;25.502;2023-02-28T02:02:27;101475.59;;;7.97;100.00
2268;BME280;11052;43.338;25.502;2023-02-28T02:04:58;101485.06;;;7.92;100.00
2268;BME280;11052;43.338;25.502;2023-02-28T02:07:29;101479.91;;;8.01;100.00
2268;BME280;11052;43.338;25.502;2023-02-28T02:10:06;101482.47;;;8.06;100.00
2268;BME280;11052;43.338;25.502;2023-02-28T02:13:05;101485.06;;;8.03;100.00
2268;BME280;11052;43.338;25.502;2023-02-28T02:15:39;101486.78;;;8.05;100.00
2268;BME280;11052;43.338;25.502;2023-02-28T02:18:17;101503.16;;;7.97;100.00
2268;BME280;11052;43.338;25.502;2023-02-28T02:21:03;101495.41;;;7.87;100.00
2268;BME280;11052;43.338;25.502;2023-02-28T02:23:58;101498.84;;;8.02;100.00
2268;BME280;11052;43.338;25.502;2023-02-28T02:26:51;101504.88;;;7.98;100.00
2268;BME280;11052;43.338;25.502;2023-02-28T02:29:45;101517.78;;;7.99;100.00
2268;BME280;11052;43.338;25.502;2023-02-28T02:32:42;101513.50;;;7.78;100.00
2268;BME280;11052;43.338;25.502;2023-02-28T02:35:17;101516.06;;;7.78;100.00
2268;BME280;11052;43.338;25.502;2023-02-28T02:37:52;101518.63;;;7.90;100.00
2268;BME280;11052;43.338;25.502;2023-02-28T02:40:27;101507.44;;;7.81;100.00
2268;BME280;11052;43.338;25.502;2023-02-28T02:43:01;101506.59;;;7.86;100.00
2268;BME280;11052;43.338;25.502;2023-02-28T02:45:33;101498.00;;;7.72;100.00
2268;BME280;11052;43.338;25.502;2023-02-28T02:48:03;101511.78;;;7.77;100.00
2268;BME280;11052;43.338;25.502;2023-02-28T02:50:36;101510.91;;;7.68;100.00
2268;BME280;11052;43.338;25.502;2023-02-28T02:53:06;101512.59;;;7.61;100.00
2268;BME280;11052;43.338;25.502;2023-02-28T02:55:40;101516.91;;;7.64;100.00
2268;BME280;11052;43.338;25.502;2023-02-28T02:58:11;101522.91;;;7.49;100.00
2268;BME280;11052;43.338;25.502;2023-02-28T03:00:41;101528.06;;;7.44;100.00
2268;BME280;11052;43.338;25.502;2023-02-28T03:03:10;101527.19;;;7.44;100.00
2268;BME280;11052;43.338;25.502;2023-02-28T03:05:43;101529.75;;;7.42;100.00
2268;BME280;11052;43.338;25.502;2023-02-28T03:08:13;101529.78;;;7.47;100.00
2268;BME280;11052;43.338;25.502;2023-02-28T03:10:43;101530.63;;;7.44;100.00
2268;BME280;11052;43.338;25.502;2023-02-28T03:13:43;101536.63;;;7.40;100.00
2268;BME280;11052;43.338;25.502;2023-02-28T03:16:32;101544.38;;;7.40;100.00
2268;BME280;11052;43.338;25.502;2023-02-28T03:19:08;101546.06;;;7.32;100.00
2268;BME280;11052;43.338;25.502;2023-02-28T03:21:45;101543.53;;;7.47;100.00
2268;BME280;11052;43.338;25.502;2023-02-28T03:24:19;101546.94;;;7.36;100.00
2268;BME280;11052;43.338;25.502;2023-02-28T03:26:52;101541.78;;;7.37;100.00
2268;BME280;11052;43.338;25.502;2023-02-28T03:29:28;101534.03;;;7.33;100.00
2268;BME280;11052;43.338;25.502;2023-02-28T03:32:00;101541.78;;;7.36;100.00
2268;BME280;11052;43.338;25.502;2023-02-28T03:34:33;101539.19;;;7.33;100.00
2268;BME280;11052;43.338;25.502;2023-02-28T03:37:06;101534.03;;;7.28;100.00
2268;BME280;11052;43.338;25.502;2023-02-28T03:39:38;101532.25;;;7.16;100.00
2268;BME280;11052;43.338;25.502;2023-02-28T03:42:11;101532.25;;;7.18;100.00
2268;BME280;11052;43.338;25.502;2023-02-28T03:44:41;101539.13;;;7.13;100.00
2268;BME280;11052;43.338;25.502;2023-02-28T03:47:12;101530.50;;;7.05;100.00
2268;BME280;11052;43.338;25.502;2023-02-28T03:49:44;101527.03;;;6.98;100.00
2268;BME280;11052;43.338;25.502;2023-02-28T03:52:14;101515.00;;;7.02;100.00
2268;BME280;11052;43.338;25.502;2023-02-28T03:54:45;101517.56;;;6.99;100.00
2268;BME280;11052;43.338;25.502;2023-02-28T03:57:20;101508.94;;;6.81;100.00
2268;BME280;11052;43.338;25.502;2023-02-28T03:59:54;101511.53;;;6.89;100.00
2268;BME280;11052;43.338;25.502;2023-02-28T04:02:23;101505.50;;;6.79;100.00
2268;BME280;11052;43.338;25.502;2023-02-28T04:04:50;101499.41;;;6.68;100.00
2268;BME280;11052;43.338;25.502;2023-02-28T04:07:19;101494.28;;;6.70;100.00
2268;BME280;11052;43.338;25.502;2023-02-28T04:09:46;101494.28;;;6.74;100.00
2268;BME280;11052;43.338;25.502;2023-02-28T04:12:13;101496.00;;;6.71;100.00
2268;BME280;11052;43.338;25.502;2023-02-28T04:14:40;101489.94;;;6.64;100.00
2268;BME280;11052;43.338;25.502;2023-02-28T04:17:07;101484.75;;;6.56;100.00
2268;BME280;11052;43.338;25.502;2023-02-28T04:19:35;101469.25;;;6.50;100.00
2268;BME280;11052;43.338;25.502;2023-02-28T04:22:02;101460.66;;;6.47;100.00
2268;BME280;11052;43.338;25.502;2023-02-28T04:24:30;101458.06;;;6.44;100.00
2268;BME280;11052;43.338;25.502;2023-02-28T04:26:58;101470.09;;;6.46;100.00
2268;BME280;11052;43.338;25.502;2023-02-28T04:29:26;101482.97;;;6.45;100.00
2268;BME280;11052;43.338;25.502;2023-02-28T04:31:54;101510.50;;;6.52;100.00
2268;BME280;11052;43.338;25.502;2023-02-28T04:34:23;101519.97;;;6.56;100.00
2268;BME280;11052;43.338;25.502;2023-02-28T04:36:51;101529.44;;;6.60;100.00
2268;BME280;11052;43.338;25.502;2023-02-28T04:39:20;101543.16;;;6.56;100.00
2268;BME280;11052;43.338;25.502;2023-02-28T04:41:48;101545.69;;;6.50;100.00
2268;BME280;11052;43.338;25.502;2023-02-28T04:44:16;101543.09;;;6.47;100.00
2268;BME280;11052;43.338;25.502;2023-02-28T04:46:43;101549.06;;;6.44;100.00
2268;BME280;11052;43.338;25.502;2023-02-28T04:49:11;101546.53;;;6.50;100.00
2268;BME280;11052;43.338;25.502;2023-02-28T04:51:38;101549.94;;;6.43;100.00
2268;BME280;11052;43.338;25.502;2023-02-28T04:54:06;101555.16;;;6.57;100.00
2268;BME280;11052;43.338;25.502;2023-02-28T04:56:33;101553.47;;;6.59;100.00
2268;BME280;11052;43.338;25.502;2023-02-28T04:59:02;101545.81;;;6.73;100.00
2268;BME280;11052;43.338;25.502;2023-02-28T05:01:31;101566.38;;;6.62;100.00
2268;BME280;11052;43.338;25.502;2023-02-28T05:04:00;101566.34;;;6.59;100.00
2268;BME280;11052;43.338;25.502;2023-02-28T05:06:30;101574.88;;;6.49;100.00
2268;BME280;11052;43.338;25.502;2023-02-28T05:08:57;101569.69;;;6.47;100.00
2268;BME280;11052;43.338;25.502;2023-02-28T05:11:26;101570.59;;;6.54;100.00
2268;BME280;11052;43.338;25.502;2023-02-28T05:13:54;101568.84;;;6.47;100.00
2268;BME280;11052;43.338;25.502;2023-02-28T05:16:23;101563.72;;;6.51;100.00
2268;BME280;11052;43.338;25.502;2023-02-28T05:18:50;101568.94;;;6.61;100.00
2268;BME280;11052;43.338;25.502;2023-02-28T05:21:28;101578.38;;;6.58;100.00
2268;BME280;11052;43.338;25.502;2023-02-28T05:23:57;101586.16;;;6.68;100.00
2268;BME280;11052;43.338;25.502;2023-02-28T05:26:24;101585.22;;;6.55;100.00
2268;BME280;11052;43.338;25.502;2023-02-28T05:28:52;101591.28;;;6.63;100.00
2268;BME280;11052;43.338;25.502;2023-02-28T05:31:21;101598.13;;;6.58;100.00
2268;BME280;11052;43.338;25.502;2023-02-28T05:33:49;101599.78;;;6.53;100.00
2268;BME280;11052;43.338;25.502;2023-02-28T05:36:17;101595.53;;;6.58;100.00
2268;BME280;11052;43.338;25.502;2023-02-28T05:38:46;101590.28;;;6.46;100.00
2268;BME280;11052;43.338;25.502;2023-02-28T05:41:14;101606.63;;;6.46;100.00
2268;BME280;11052;43.338;25.502;2023-02-28T05:43:42;101598.06;;;6.52;100.00
2268;BME280;11052;43.338;25.502;2023-02-28T05:46:10;101594.53;;;6.39;100.00
2268;BME280;11052;43.338;25.502;2023-02-28T05:48:39;101591.22;;;6.55;100.00
2268;BME280;11052;43.338;25.502;2023-02-28T05:51:08;101591.16;;;6.45;100.00
2268;BME280;11052;43.338;25.502;2023-02-28T05:53:35;101592.94;;;6.53;100.00
2268;BME280;11052;43.338;25.502;2023-02-28T05:56:03;101592.97;;;6.61;100.00
2268;BME280;11052;43.338;25.502;2023-02-28T05:58:30;101599.84;;;6.59;100.00
2268;BME280;11052;43.338;25.502;2023-02-28T06:00:58;101593.84;;;6.62;100.00
2268;BME280;11052;43.338;25.502;2023-02-28T06:03:26;101600.78;;;6.72;100.00
2268;BME280;11052;43.338;25.502;2023-02-28T06:05:53;101601.59;;;6.63;100.00
2268;BME280;11052;43.338;25.502;2023-02-28T06:08:22;101608.41;;;6.58;100.00
2268;BME280;11052;43.338;25.502;2023-02-28T06:10:49;101602.44;;;6.64;100.00
2268;BME280;11052;43.338;25.502;2023-02-28T06:13:16;101594.72;;;6.65;100.00
2268;BME280;11052;43.338;25.502;2023-02-28T06:15:43;101599.88;;;6.65;100.00
2268;BME280;11052;43.338;25.502;2023-02-28T06:18:10;101602.47;;;6.68;100.00
2268;BME280;11052;43.338;25.502;2023-02-28T06:20:37;101604.16;;;6.62;100.00
2268;BME280;11052;43.338;25.502;2023-02-28T06:23:04;101611.09;;;6.72;100.00
2268;BME280;11052;43.338;25.502;2023-02-28T06:25:33;101611.03;;;6.64;100.00
2268;BME280;11052;43.338;25.502;2023-02-28T06:28:00;101608.50;;;6.69;100.00
2268;BME280;11052;43.338;25.502;2023-02-28T06:30:27;101605.91;;;6.67;100.00
2268;BME280;11052;43.338;25.502;2023-02-28T06:32:56;101611.91;;;6.66;100.00
2268;BME280;11052;43.338;25.502;2023-02-28T06:35:23;101611.91;;;6.63;100.00
2268;BME280;11052;43.338;25.502;2023-02-28T06:37:51;101616.16;;;6.60;100.00
2268;BME280;11052;43.338;25.502;2023-02-28T06:40:18;101621.44;;;6.76;100.00
2268;BME280;11052;43.338;25.502;2023-02-28T06:42:46;101620.59;;;6.79;100.00
2268;BME280;11052;43.338;25.502;2023-02-28T06:45:14;101618.09;;;6.91;100.00
2268;BME280;11052;43.338;25.502;2023-02-28T06:47:41;101618.06;;;6.85;100.00
2268;BME280;11052;43.338;25.502;2023-02-28T06:50:10;101621.50;;;6.88;100.00
2268;BME280;11052;43.338;25.502;2023-02-28T06:52:38;101618.94;;;6.95;100.00
2268;BME280;11052;43.338;25.502;2023-02-28T06:55:09;101618.06;;;6.88;100.00
2268;BME280;11052;43.338;25.502;2023-02-28T06:57:36;101624.94;;;6.89;100.00
2268;BME280;11052;43.338;25.502;2023-02-28T07:00:07;101631.78;;;6.84;100.00
2268;BME280;11052;43.338;25.502;2023-02-28T07:02:36;101626.59;;;6.76;100.00
2268;BME280;11052;43.338;25.502;2023-02-28T07:05:03;101626.69;;;6.92;100.00
2268;BME280;11052;43.338;25.502;2023-02-28T07:07:31;101623.28;;;7.02;100.00
2268;BME280;11052;43.338;25.502;2023-02-28T07:09:59;101630.13;;;6.98;100.00
2268;BME280;11052;43.338;25.502;2023-02-28T07:12:26;101617.22;;;6.90;100.00
2268;BME280;11052;43.338;25.502;2023-02-28T07:14:53;101625.84;;;6.99;100.00
2268;BME280;11052;43.338;25.502;2023-02-28T07:17:22;101628.50;;;7.11;100.00
2268;BME280;11052;43.338;25.502;2023-02-28T07:19:50;101625.94;;;7.14;100.00
2268;BME280;11052;43.338;25.502;2023-02-28T07:22:17;101627.63;;;7.12;100.00
2268;BME280;11052;43.338;25.502;2023-02-28T07:24:44;101627.72;;;7.26;100.00
2268;BME280;11052;43.338;25.502;2023-02-28T07:27:11;101625.16;;;7.29;100.00
2268;BME280;11052;43.338;25.502;2023-02-28T07:29:51;101623.44;;;7.31;100.00
2268;BME280;11052;43.338;25.502;2023-02-28T07:32:19;101630.31;;;7.29;100.00
2268;BME280;11052;43.338;25.502;2023-02-28T07:34:48;101618.38;;;7.52;100.00
2268;BME280;11052;43.338;25.502;2023-02-28T07:37:15;101616.63;;;7.45;100.00
2268;BME280;11052;43.338;25.502;2023-02-28T07:39:42;101628.69;;;7.53;100.00
2268;BME280;11052;43.338;25.502;2023-02-28T07:42:09;101628.69;;;7.55;100.00
2268;BME280;11052;43.338;25.502;2023-02-28T07:44:37;101629.63;;;7.71;100.00
2268;BME280;11052;43.338;25.502;2023-02-28T07:47:07;101628.75;;;7.64;100.00
2268;BME280;11052;43.338;25.502;2023-02-28T07:49:35;101627.88;;;7.64;100.00
2268;BME280;11052;43.338;25.502;2023-02-28T07:52:04;101631.34;;;7.73;100.00
2268;BME280;11052;43.338;25.502;2023-02-28T07:54:32;101633.94;;;7.79;100.00
2268;BME280;11052;43.338;25.502;2023-02-28T07:56:59;101649.44;;;7.76;100.00
2268;BME280;11052;43.338;25.502;2023-02-28T07:59:26;101639.94;;;7.72;100.00
2268;BME280;11052;43.338;25.502;2023-02-28T08:01:54;101639.97;;;7.80;100.00
2268;BME280;11052;43.338;25.502;2023-02-28T08:04:21;101639.97;;;7.80;100.00
2268;BME280;11052;43.338;25.502;2023-02-28T08:06:48;101637.38;;;7.78;100.00
2268;BME280;11052;43.338;25.502;2023-02-28T08:09:18;101633.09;;;7.79;100.00
2268;BME280;11052;43.338;25.502;2023-02-28T08:11:46;101639.13;;;7.93;100.00
2268;BME280;11052;43.338;25.502;2023-02-28T08:14:13;101635.69;;;8.03;100.00
2268;BME280;11052;43.338;25.502;2023-02-28T08:16:40;101643.47;;;8.21;100.00
2268;BME280;11052;43.338;25.502;2023-02-28T08:19:08;101647.81;;;8.35;100.00
2268;BME280;11052;43.338;25.502;2023-02-28T08:21:35;101647.78;;;8.27;100.00
2268;BME280;11052;43.338;25.502;2023-02-28T08:24:02;101650.38;;;8.29;100.00
2268;BME280;11052;43.338;25.502;2023-02-28T08:26:32;101640.94;;;8.44;100.00
2268;BME280;11052;43.338;25.502;2023-02-28T08:28:59;101638.38;;;8.58;100.00
2268;BME280;11052;43.338;25.502;2023-02-28T08:31:26;101640.09;;;8.61;100.00
2268;BME280;11052;43.338;25.502;2023-02-28T08:33:53;101640.09;;;8.42;100.00
2268;BME280;11052;43.338;25.502;2023-02-28T08:36:24;101639.22;;;8.56;100.00
2268;BME280;11052;43.338;25.502;2023-02-28T08:38:54;101636.63;;;8.65;100.00
2268;BME280;11052;43.338;25.502;2023-02-28T08:41:21;101638.31;;;8.72;100.00
2268;BME280;11052;43.338;25.502;2023-02-28T08:43:49;101634.03;;;8.71;100.00
2268;BME280;11052;43.338;25.502;2023-02-28T08:46:16;101642.66;;;8.65;100.00
2268;BME280;11052;43.338;25.502;2023-02-28T08:48:43;101644.34;;;8.75;100.00
2268;BME280;11052;43.338;25.502;2023-02-28T08:51:13;101651.25;;;8.76;100.00
2268;BME280;11052;43.338;25.502;2023-02-28T08:53:41;101657.28;;;8.80;100.00
2268;BME280;11052;43.338;25.502;2023-02-28T08:56:10;101647.81;;;8.76;100.00
2268;BME280;11052;43.338;25.502;2023-02-28T08:58:38;101651.28;;;8.63;100.00
2268;BME280;11052;43.338;25.502;2023-02-28T09:01:11;101648.66;;;8.67;100.00
2268;BME280;11052;43.338;25.502;2023-02-28T09:03:39;101653.88;;;8.64;100.00
2268;BME280;11052;43.338;25.502;2023-02-28T09:06:07;101642.66;;;8.65;100.00
2268;BME280;11052;43.338;25.502;2023-02-28T09:08:35;101650.38;;;8.86;100.00
2268;BME280;11052;43.338;25.502;2023-02-28T09:11:03;101644.31;;;9.03;100.00
2268;BME280;11052;43.338;25.502;2023-02-28T09:13:30;101638.25;;;9.11;100.00
2268;BME280;11052;43.338;25.502;2023-02-28T09:15:58;101636.50;;;9.19;100.00
2268;BME280;11052;43.338;25.502;2023-02-28T09:18:27;101633.94;;;9.18;100.00
2268;BME280;11052;43.338;25.502;2023-02-28T09:20:55;101631.38;;;9.03;100.00
2268;BME280;11052;43.338;25.502;2023-02-28T09:23:23;101631.38;;;9.04;100.00
2268;BME280;11052;43.338;25.502;2023-02-28T09:25:51;101643.44;;;9.08;100.00
2268;BME280;11052;43.338;25.502;2023-02-28T09:28:19;101635.69;;;9.04;100.00
2268;BME280;11052;43.338;25.502;2023-02-28T09:30:49;101639.09;;;9.23;100.00
2268;BME280;11052;43.338;25.502;2023-02-28T09:33:17;101639.97;;;9.22;100.00
2268;BME280;11052;43.338;25.502;2023-02-28T09:35:47;101641.66;;;9.33;100.00
2268;BME280;11052;43.338;25.502;2023-02-28T09:38:15;101641.63;;;9.42;100.00
2268;BME280;11052;43.338;25.502;2023-02-28T09:40:49;101651.94;;;9.50;100.00
2268;BME280;11052;43.338;25.502;2023-02-28T09:43:19;101648.50;;;9.46;100.00
2268;BME280;11052;43.338;25.502;2023-02-28T09:45:50;101650.28;;;9.34;100.00
2268;BME280;11052;43.338;25.502;2023-02-28T09:48:27;101652.94;;;9.05;100.00
2268;BME280;11052;43.338;25.502;2023-02-28T09:51:01;101656.38;;;9.02;100.00
2268;BME280;11052;43.338;25.502;2023-02-28T09:53:32;101654.66;;;9.13;100.00
2268;BME280;11052;43.338;25.502;2023-02-28T09:56:03;101651.19;;;9.11;100.00
2268;BME280;11052;43.338;25.502;2023-02-28T09:58:34;101654.66;;;9.10;100.00
2268;BME280;11052;43.338;25.502;2023-02-28T10:01:09;101655.50;;;9.18;100.00
2268;BME280;11052;43.338;25.502;2023-02-28T10:03:40;101656.34;;;9.17;100.00
2268;BME280;11052;43.338;25.502;2023-02-28T10:06:15;101655.50;;;9.14;100.00
2268;BME280;11052;43.338;25.502;2023-02-28T10:08:51;101665.00;;;9.04;100.00
2268;BME280;11052;43.338;25.502;2023-02-28T10:11:20;101669.31;;;8.95;100.00
2268;BME280;11052;43.338;25.502;2023-02-28T10:13:54;101657.28;;;8.86;100.00
2268;BME280;11052;43.338;25.502;2023-02-28T10:16:32;101652.97;;;8.79;100.00
2268;BME280;11052;43.338;25.502;2023-02-28T10:19:04;101642.63;;;8.86;100.00
2268;BME280;11052;43.338;25.502;2023-02-28T10:21:37;101634.88;;;8.80;100.00
2268;BME280;11052;43.338;25.502;2023-02-28T10:24:20;101629.69;;;8.90;100.00
2268;BME280;11052;43.338;25.502;2023-02-28T10:26:52;101629.69;;;8.96;100.00
2268;BME280;11052;43.338;25.502;2023-02-28T10:29:21;101631.38;;;9.06;100.00
2268;BME280;11052;43.338;25.502;2023-02-28T10:31:48;101631.38;;;9.06;100.00
2268;BME280;11052;43.338;25.502;2023-02-28T10:34:15;101625.34;;;9.08;100.00
2268;BME280;11052;43.338;25.502;2023-02-28T10:36:44;101629.66;;;9.02;100.00
2268;BME280;11052;43.338;25.502;2023-02-28T10:39:40;101621.03;;;9.01;100.00
2268;BME280;11052;43.338;25.502;2023-02-28T10:42:21;101615.00;;;9.02;100.00
2268;BME280;11052;43.338;25.502;2023-02-28T10:45:05;101606.31;;;9.22;100.00
2268;BME280;11052;43.338;25.502;2023-02-28T10:47:33;101606.34;;;9.20;100.00
2268;BME280;11052;43.338;25.502;2023-02-28T10:50:02;101601.13;;;9.26;100.00
2268;BME280;11052;43.338;25.502;2023-02-28T10:52:39;101597.69;;;9.27;100.00
2268;BME280;11052;43.338;25.502;2023-02-28T10:55:18;101589.09;;;9.16;100.00
2268;BME280;11052;43.338;25.502;2023-02-28T10:57:46;101585.69;;;8.99;100.00
2268;BME280;11052;43.338;25.502;2023-02-28T11:00:16;101583.13;;;8.99;100.00
2268;BME280;11052;43.338;25.502;2023-02-28T11:02:44;101587.44;;;8.94;100.00
2268;BME280;11052;43.338;25.502;2023-02-28T11:05:29;101583.13;;;8.99;100.00
2268;BME280;11052;43.338;25.502;2023-02-28T11:08:04;101582.31;;;8.77;100.00
2268;BME280;11052;43.338;25.502;2023-02-28T11:10:32;101584.03;;;8.67;100.00
2268;BME280;11052;43.338;25.502;2023-02-28T11:13:03;101584.03;;;8.67;100.00
2268;BME280;11052;43.338;25.502;2023-02-28T11:15:31;101584.03;;;8.70;100.00
2268;BME280;11052;43.338;25.502;2023-02-28T11:18:02;101589.25;;;8.64;100.00
2268;BME280;11052;43.338;25.502;2023-02-28T11:20:32;101584.09;;;8.61;100.00
2268;BME280;11052;43.338;25.502;2023-02-28T11:23:02;101583.25;;;8.48;100.00
2268;BME280;11052;43.338;25.502;2023-02-28T11:25:32;101580.66;;;8.50;100.00
2268;BME280;11052;43.338;25.502;2023-02-28T11:28:02;101583.25;;;8.41;100.00
2268;BME280;11052;43.338;25.502;2023-02-28T11:30:34;101589.28;;;8.44;100.00
2268;BME280;11052;43.338;25.502;2023-02-28T11:33:20;101577.19;;;8.56;100.00
2268;BME280;11052;43.338;25.502;2023-02-28T11:35:49;101578.06;;;8.50;100.00
2268;BME280;11052;43.338;25.502;2023-02-28T11:38:18;101574.63;;;8.42;100.00
2268;BME280;11052;43.338;25.502;2023-02-28T11:40:50;101566.00;;;8.47;100.00
2268;BME280;11052;43.338;25.502;2023-02-28T11:43:33;101566.88;;;8.33;100.00
2268;BME280;11052;43.338;25.502;2023-02-28T11:46:18;101568.56;;;8.31;100.00
2268;BME280;11052;43.338;25.502;2023-02-28T11:48:55;101570.28;;;8.26;100.00
2268;BME280;11052;43.338;25.502;2023-02-28T11:51:28;101566.84;;;8.27;100.00
2268;BME280;11052;43.338;25.502;2023-02-28T11:54:15;101568.56;;;8.28;100.00
2268;BME280;11052;43.338;25.502;2023-02-28T11:56:51;101565.13;;;8.04;100.00
2268;BME280;11052;43.338;25.502;2023-02-28T11:59:43;101571.13;;;8.02;100.00
2268;BME280;11052;43.338;25.502;2023-02-28T12:02:23;101564.25;;;7.99;100.00
2268;BME280;11052;43.338;25.502;2023-02-28T12:05:00;101566.81;;;7.95;100.00
2268;BME280;11052;43.338;25.502;2023-02-28T12:07:38;101582.34;;;8.04;100.00
2268;BME280;11052;43.338;25.502;2023-02-28T12:10:20;101572.00;;;7.92;100.00
2268;BME280;11052;43.338;25.502;2023-02-28T12:12:56;101569.41;;;7.93;100.00
2268;BME280;11052;43.338;25.502;2023-02-28T12:15:43;101571.13;;;7.85;100.00
2268;BME280;11052;43.338;25.502;2023-02-28T12:21:14;101565.09;;;7.87;100.00
2268;BME280;11052;43.338;25.502;2023-02-28T12:23:58;101559.94;;;7.84;100.00
2268;BME280;11052;43.338;25.502;2023-02-28T12:26:35;101566.81;;;7.90;100.00
2268;BME280;11052;43.338;25.502;2023-02-28T12:29:11;101561.69;;;7.79;100.00
2268;BME280;11052;43.338;25.502;2023-02-28T12:31:42;101571.97;;;7.69;100.00
2268;BME280;11052;43.338;25.502;2023-02-28T12:34:16;101561.69;;;7.79;100.00
2268;BME280;11052;43.338;25.502;2023-02-28T12:36:47;101566.81;;;7.81;100.00
2268;BME280;11052;43.338;25.502;2023-02-28T12:39:18;101565.97;;;7.71;100.00
2268;BME280;11052;43.338;25.502;2023-02-28T12:41:51;101557.34;;;7.83;100.00
2268;BME280;11052;43.338;25.502;2023-02-28T12:44:26;101555.63;;;7.82;100.00
2268;BME280;11052;43.338;25.502;2023-02-28T12:46:57;101552.19;;;7.71;100.00
2268;BME280;11052;43.338;25.502;2023-02-28T12:49:30;101540.16;;;7.68;100.00
2268;BME280;11052;43.338;25.502;2023-02-28T12:51:59;101547.03;;;7.68;100.00
2268;BME280;11052;43.338;25.502;2023-02-28T12:54:32;101536.72;;;7.78;100.00
2268;BME280;11052;43.338;25.502;2023-02-28T12:57:09;101541.88;;;7.75;100.00
2268;BME280;11052;43.338;25.502;2023-02-28T12:59:40;101540.16;;;7.70;100.00
2268;BME280;11052;43.338;25.502;2023-02-28T13:02:33;101545.31;;;7.82;100.00
2268;BME280;11052;43.338;25.502;2023-02-28T13:05:29;101547.91;;;7.71;100.00
2268;BME280;11052;43.338;25.502;2023-02-28T13:08:30;101547.91;;;7.79;100.00
2268;BME280;11052;43.338;25.502;2023-02-28T13:11:06;101553.06;;;7.67;100.00
2268;BME280;11052;43.338;25.502;2023-02-28T13:13:35;101562.50;;;7.62;100.00